Carbondale, Colorado
Current Conditions -  °F | °C
As of 6:53 PM on Monday 24 Nov 2014 (Local Time) from KASE Reporting Station
Overcast Overcast  
Wind Chill: 12°   Ceiling: 3700
Heat Index: 20°   Visibility: 10mi
Dew Point: 16°   Wind: 6mph
Humidity: 85%   Direction: 10°N
Pressure: 30.25"   Gusts: NA
Location:  39.4°N, 107.21°W
Report Text: KASE 250153Z 01005KT 10SM FEW012 BKN037 OVC055 M07/M09 A3025 RMK AO2 SNE08 SLP271 P0000 T10671089
Loading
Personal Weather Stations






























Interactive Weather Map New forecast layout! Learn more

10-Day Weather Forecast

Advertisements
Track Severe Weather on mobile